sensor_id;sensor_type;location;lat;lon;timestamp;P1;durP1;ratioP1;P2;durP2;ratioP2
32611;SDS011;19030;49.478;8.986;2023-01-29T00:01:06;7.35;;;3.75;;
32611;SDS011;19030;49.478;8.986;2023-01-29T00:03:06;7.70;;;3.65;;
32611;SDS011;19030;49.478;8.986;2023-01-29T00:05:07;7.03;;;3.65;;
32611;SDS011;19030;49.478;8.986;2023-01-29T00:07:08;7.07;;;3.50;;
32611;SDS011;19030;49.478;8.986;2023-01-29T00:09:09;9.70;;;3.85;;
32611;SDS011;19030;49.478;8.986;2023-01-29T00:11:10;6.63;;;3.47;;
32611;SDS011;19030;49.478;8.986;2023-01-29T00:13:11;6.97;;;3.55;;
32611;SDS011;19030;49.478;8.986;2023-01-29T00:15:12;8.85;;;3.78;;
32611;SDS011;19030;49.478;8.986;2023-01-29T00:17:12;7.65;;;3.85;;
32611;SDS011;19030;49.478;8.986;2023-01-29T00:19:13;7.53;;;3.47;;
32611;SDS011;19030;49.478;8.986;2023-01-29T00:21:14;6.78;;;3.53;;
32611;SDS011;19030;49.478;8.986;2023-01-29T00:23:16;7.07;;;3.50;;
32611;SDS011;19030;49.478;8.986;2023-01-29T00:25:17;7.03;;;3.58;;
32611;SDS011;19030;49.478;8.986;2023-01-29T00:27:17;6.47;;;3.55;;
32611;SDS011;19030;49.478;8.986;2023-01-29T00:29:18;7.95;;;4.18;;
32611;SDS011;19030;49.478;8.986;2023-01-29T00:31:22;8.07;;;3.80;;
32611;SDS011;19030;49.478;8.986;2023-01-29T00:33:23;7.65;;;4.03;;
32611;SDS011;19030;49.478;8.986;2023-01-29T00:35:25;7.97;;;3.97;;
32611;SDS011;19030;49.478;8.986;2023-01-29T00:37:26;10.20;;;3.60;;
32611;SDS011;19030;49.478;8.986;2023-01-29T00:39:26;9.07;;;3.47;;
32611;SDS011;19030;49.478;8.986;2023-01-29T00:41:37;5.97;;;3.50;;
32611;SDS011;19030;49.478;8.986;2023-01-29T00:43:57;7.85;;;3.78;;
32611;SDS011;19030;49.478;8.986;2023-01-29T00:46:17;7.13;;;3.85;;
32611;SDS011;19030;49.478;8.986;2023-01-29T00:48:18;7.60;;;4.30;;
32611;SDS011;19030;49.478;8.986;2023-01-29T00:50:19;8.00;;;4.40;;
32611;SDS011;19030;49.478;8.986;2023-01-29T00:52:20;8.23;;;4.10;;
32611;SDS011;19030;49.478;8.986;2023-01-29T00:54:23;9.07;;;3.88;;
32611;SDS011;19030;49.478;8.986;2023-01-29T00:56:24;6.97;;;3.67;;
32611;SDS011;19030;49.478;8.986;2023-01-29T00:58:25;6.18;;;3.60;;
32611;SDS011;19030;49.478;8.986;2023-01-29T01:00:33;6.28;;;3.55;;
32611;SDS011;19030;49.478;8.986;2023-01-29T01:02:34;6.50;;;3.45;;
32611;SDS011;19030;49.478;8.986;2023-01-29T01:04:53;7.65;;;4.10;;
32611;SDS011;19030;49.478;8.986;2023-01-29T01:06:54;7.22;;;4.35;;
32611;SDS011;19030;49.478;8.986;2023-01-29T01:08:54;9.70;;;4.00;;
32611;SDS011;19030;49.478;8.986;2023-01-29T01:11:13;7.88;;;4.28;;
32611;SDS011;19030;49.478;8.986;2023-01-29T01:13:14;8.48;;;4.47;;
32611;SDS011;19030;49.478;8.986;2023-01-29T01:15:15;7.35;;;3.63;;
32611;SDS011;19030;49.478;8.986;2023-01-29T01:17:16;9.80;;;4.70;;
32611;SDS011;19030;49.478;8.986;2023-01-29T01:19:17;9.32;;;3.92;;
32611;SDS011;19030;49.478;8.986;2023-01-29T01:21:17;6.75;;;3.50;;
32611;SDS011;19030;49.478;8.986;2023-01-29T01:23:18;8.38;;;4.07;;
32611;SDS011;19030;49.478;8.986;2023-01-29T01:25:19;7.47;;;4.00;;
32611;SDS011;19030;49.478;8.986;2023-01-29T01:27:21;8.38;;;4.65;;
32611;SDS011;19030;49.478;8.986;2023-01-29T01:29:22;8.77;;;4.13;;
32611;SDS011;19030;49.478;8.986;2023-01-29T01:31:23;7.10;;;3.58;;
32611;SDS011;19030;49.478;8.986;2023-01-29T01:33:24;7.57;;;4.43;;
32611;SDS011;19030;49.478;8.986;2023-01-29T01:35:25;6.80;;;3.75;;
32611;SDS011;19030;49.478;8.986;2023-01-29T01:37:25;8.23;;;3.72;;
32611;SDS011;19030;49.478;8.986;2023-01-29T01:39:26;8.23;;;4.25;;
32611;SDS011;19030;49.478;8.986;2023-01-29T01:41:26;6.63;;;3.78;;
32611;SDS011;19030;49.478;8.986;2023-01-29T01:43:44;8.73;;;4.53;;
32611;SDS011;19030;49.478;8.986;2023-01-29T01:45:49;8.32;;;3.95;;
32611;SDS011;19030;49.478;8.986;2023-01-29T01:47:50;7.78;;;3.90;;
32611;SDS011;19030;49.478;8.986;2023-01-29T01:49:55;7.63;;;4.13;;
32611;SDS011;19030;49.478;8.986;2023-01-29T01:52:00;9.02;;;4.60;;
32611;SDS011;19030;49.478;8.986;2023-01-29T01:54:05;6.07;;;3.70;;
32611;SDS011;19030;49.478;8.986;2023-01-29T01:56:13;5.82;;;3.60;;
32611;SDS011;19030;49.478;8.986;2023-01-29T01:58:23;7.03;;;3.88;;
32611;SDS011;19030;49.478;8.986;2023-01-29T02:00:28;6.95;;;3.58;;
32611;SDS011;19030;49.478;8.986;2023-01-29T02:02:28;7.97;;;3.92;;
32611;SDS011;19030;49.478;8.986;2023-01-29T02:04:47;5.88;;;3.53;;
32611;SDS011;19030;49.478;8.986;2023-01-29T02:07:08;6.80;;;3.78;;
32611;SDS011;19030;49.478;8.986;2023-01-29T02:09:36;7.03;;;3.88;;
32611;SDS011;19030;49.478;8.986;2023-01-29T02:11:51;6.68;;;3.65;;
32611;SDS011;19030;49.478;8.986;2023-01-29T02:13:52;7.75;;;3.90;;
32611;SDS011;19030;49.478;8.986;2023-01-29T02:15:58;7.28;;;4.18;;
32611;SDS011;19030;49.478;8.986;2023-01-29T02:17:59;10.95;;;4.90;;
32611;SDS011;19030;49.478;8.986;2023-01-29T02:20:09;8.05;;;4.03;;
32611;SDS011;19030;49.478;8.986;2023-01-29T02:33:29;6.97;;;3.70;;
32611;SDS011;19030;49.478;8.986;2023-01-29T02:48:36;7.93;;;4.03;;
32611;SDS011;19030;49.478;8.986;2023-01-29T02:50:42;8.75;;;4.45;;
32611;SDS011;19030;49.478;8.986;2023-01-29T02:52:55;7.95;;;4.30;;
32611;SDS011;19030;49.478;8.986;2023-01-29T02:55:22;7.20;;;3.55;;
32611;SDS011;19030;49.478;8.986;2023-01-29T02:57:35;10.50;;;3.90;;
32611;SDS011;19030;49.478;8.986;2023-01-29T02:59:43;8.45;;;4.03;;
32611;SDS011;19030;49.478;8.986;2023-01-29T03:01:53;9.23;;;4.55;;
32611;SDS011;19030;49.478;8.986;2023-01-29T03:04:00;9.77;;;4.00;;
32611;SDS011;19030;49.478;8.986;2023-01-29T03:06:08;10.60;;;4.85;;
32611;SDS011;19030;49.478;8.986;2023-01-29T03:08:39;8.90;;;4.75;;
32611;SDS011;19030;49.478;8.986;2023-01-29T03:10:47;8.52;;;4.25;;
32611;SDS011;19030;49.478;8.986;2023-01-29T03:12:58;9.18;;;4.38;;
32611;SDS011;19030;49.478;8.986;2023-01-29T03:15:13;9.15;;;4.47;;
32611;SDS011;19030;49.478;8.986;2023-01-29T03:17:46;9.43;;;4.25;;
32611;SDS011;19030;49.478;8.986;2023-01-29T03:19:55;11.98;;;4.20;;
32611;SDS011;19030;49.478;8.986;2023-01-29T03:21:57;7.80;;;4.30;;
32611;SDS011;19030;49.478;8.986;2023-01-29T03:24:03;7.88;;;4.32;;
32611;SDS011;19030;49.478;8.986;2023-01-29T03:26:25;6.88;;;3.58;;
32611;SDS011;19030;49.478;8.986;2023-01-29T03:28:44;8.07;;;3.80;;
32611;SDS011;19030;49.478;8.986;2023-01-29T03:31:08;6.30;;;3.58;;
32611;SDS011;19030;49.478;8.986;2023-01-29T03:33:34;9.70;;;3.92;;
32611;SDS011;19030;49.478;8.986;2023-01-29T03:35:54;9.60;;;4.30;;
32611;SDS011;19030;49.478;8.986;2023-01-29T03:38:00;8.00;;;4.13;;
32611;SDS011;19030;49.478;8.986;2023-01-29T03:40:03;6.97;;;4.22;;
32611;SDS011;19030;49.478;8.986;2023-01-29T03:46:35;9.43;;;4.35;;
32611;SDS011;19030;49.478;8.986;2023-01-29T03:48:46;8.27;;;3.83;;
32611;SDS011;19030;49.478;8.986;2023-01-29T03:53:28;7.28;;;3.92;;
32611;SDS011;19030;49.478;8.986;2023-01-29T03:55:42;6.70;;;3.75;;
32611;SDS011;19030;49.478;8.986;2023-01-29T03:58:11;7.78;;;3.83;;
32611;SDS011;19030;49.478;8.986;2023-01-29T04:00:27;7.43;;;4.20;;
32611;SDS011;19030;49.478;8.986;2023-01-29T04:02:41;8.98;;;4.50;;
32611;SDS011;19030;49.478;8.986;2023-01-29T04:04:48;8.15;;;4.10;;
32611;SDS011;19030;49.478;8.986;2023-01-29T04:06:54;7.57;;;4.28;;
32611;SDS011;19030;49.478;8.986;2023-01-29T04:09:04;8.70;;;3.78;;
32611;SDS011;19030;49.478;8.986;2023-01-29T04:11:20;7.75;;;4.00;;
32611;SDS011;19030;49.478;8.986;2023-01-29T04:13:22;8.27;;;4.07;;
32611;SDS011;19030;49.478;8.986;2023-01-29T04:15:25;8.25;;;4.00;;
32611;SDS011;19030;49.478;8.986;2023-01-29T04:17:30;8.05;;;4.50;;
32611;SDS011;19030;49.478;8.986;2023-01-29T04:19:44;6.50;;;3.80;;
32611;SDS011;19030;49.478;8.986;2023-01-29T04:21:45;6.00;;;3.58;;
32611;SDS011;19030;49.478;8.986;2023-01-29T04:23:49;7.75;;;4.45;;
32611;SDS011;19030;49.478;8.986;2023-01-29T04:25:56;6.90;;;4.18;;
32611;SDS011;19030;49.478;8.986;2023-01-29T04:28:12;9.18;;;4.25;;
32611;SDS011;19030;49.478;8.986;2023-01-29T04:40:20;9.82;;;4.57;;
32611;SDS011;19030;49.478;8.986;2023-01-29T04:42:34;6.88;;;3.95;;
32611;SDS011;19030;49.478;8.986;2023-01-29T04:44:47;8.75;;;4.30;;
32611;SDS011;19030;49.478;8.986;2023-01-29T04:47:10;7.88;;;4.47;;
32611;SDS011;19030;49.478;8.986;2023-01-29T04:49:43;6.32;;;3.75;;
32611;SDS011;19030;49.478;8.986;2023-01-29T04:52:00;11.85;;;4.90;;
32611;SDS011;19030;49.478;8.986;2023-01-29T04:57:18;8.27;;;3.78;;
32611;SDS011;19030;49.478;8.986;2023-01-29T04:59:27;7.97;;;4.65;;
32611;SDS011;19030;49.478;8.986;2023-01-29T05:01:31;7.15;;;4.10;;
32611;SDS011;19030;49.478;8.986;2023-01-29T05:03:34;9.00;;;4.75;;
32611;SDS011;19030;49.478;8.986;2023-01-29T05:05:38;9.40;;;4.95;;
32611;SDS011;19030;49.478;8.986;2023-01-29T05:07:41;11.05;;;4.30;;
32611;SDS011;19030;49.478;8.986;2023-01-29T05:09:43;7.63;;;3.75;;
32611;SDS011;19030;49.478;8.986;2023-01-29T05:11:46;7.28;;;3.88;;
32611;SDS011;19030;49.478;8.986;2023-01-29T05:13:47;8.80;;;4.07;;
32611;SDS011;19030;49.478;8.986;2023-01-29T05:15:56;9.75;;;4.50;;
32611;SDS011;19030;49.478;8.986;2023-01-29T05:18:01;7.82;;;3.92;;
32611;SDS011;19030;49.478;8.986;2023-01-29T05:20:09;9.38;;;4.30;;
32611;SDS011;19030;49.478;8.986;2023-01-29T05:22:11;8.95;;;4.22;;
32611;SDS011;19030;49.478;8.986;2023-01-29T05:24:16;6.70;;;3.75;;
32611;SDS011;19030;49.478;8.986;2023-01-29T05:26:19;9.65;;;4.22;;
32611;SDS011;19030;49.478;8.986;2023-01-29T05:28:38;8.98;;;3.97;;
32611;SDS011;19030;49.478;8.986;2023-01-29T05:30:39;7.97;;;4.10;;
32611;SDS011;19030;49.478;8.986;2023-01-29T05:32:39;8.25;;;4.40;;
32611;SDS011;19030;49.478;8.986;2023-01-29T05:34:40;7.72;;;4.53;;
32611;SDS011;19030;49.478;8.986;2023-01-29T05:36:41;7.55;;;4.30;;
32611;SDS011;19030;49.478;8.986;2023-01-29T05:38:41;7.30;;;3.90;;
32611;SDS011;19030;49.478;8.986;2023-01-29T05:40:42;7.85;;;3.83;;
32611;SDS011;19030;49.478;8.986;2023-01-29T05:42:43;13.95;;;4.43;;
32611;SDS011;19030;49.478;8.986;2023-01-29T05:44:43;9.55;;;4.43;;
32611;SDS011;19030;49.478;8.986;2023-01-29T05:46:44;7.90;;;4.13;;
32611;SDS011;19030;49.478;8.986;2023-01-29T05:48:45;6.68;;;3.95;;
32611;SDS011;19030;49.478;8.986;2023-01-29T05:50:45;7.82;;;4.18;;
32611;SDS011;19030;49.478;8.986;2023-01-29T05:52:46;8.40;;;4.28;;
32611;SDS011;19030;49.478;8.986;2023-01-29T05:54:47;7.78;;;4.00;;
32611;SDS011;19030;49.478;8.986;2023-01-29T05:56:48;7.97;;;4.38;;
32611;SDS011;19030;49.478;8.986;2023-01-29T05:58:48;7.82;;;4.38;;
32611;SDS011;19030;49.478;8.986;2023-01-29T06:00:49;8.13;;;4.57;;
32611;SDS011;19030;49.478;8.986;2023-01-29T06:02:49;7.97;;;4.13;;
32611;SDS011;19030;49.478;8.986;2023-01-29T06:04:50;8.73;;;4.47;;
32611;SDS011;19030;49.478;8.986;2023-01-29T06:06:51;12.05;;;4.43;;
32611;SDS011;19030;49.478;8.986;2023-01-29T06:08:52;8.13;;;4.20;;
32611;SDS011;19030;49.478;8.986;2023-01-29T06:10:52;9.43;;;4.85;;
32611;SDS011;19030;49.478;8.986;2023-01-29T06:12:53;8.32;;;4.10;;
32611;SDS011;19030;49.478;8.986;2023-01-29T06:14:53;7.63;;;4.25;;
32611;SDS011;19030;49.478;8.986;2023-01-29T06:16:54;7.95;;;4.18;;
32611;SDS011;19030;49.478;8.986;2023-01-29T06:18:54;9.20;;;4.65;;
32611;SDS011;19030;49.478;8.986;2023-01-29T06:20:58;9.55;;;4.68;;
32611;SDS011;19030;49.478;8.986;2023-01-29T06:23:00;12.05;;;4.70;;
32611;SDS011;19030;49.478;8.986;2023-01-29T06:25:00;7.80;;;4.72;;
32611;SDS011;19030;49.478;8.986;2023-01-29T06:27:01;8.57;;;4.43;;
32611;SDS011;19030;49.478;8.986;2023-01-29T06:29:01;9.48;;;4.28;;
32611;SDS011;19030;49.478;8.986;2023-01-29T06:31:02;8.73;;;4.72;;
32611;SDS011;19030;49.478;8.986;2023-01-29T06:33:04;9.30;;;4.30;;
32611;SDS011;19030;49.478;8.986;2023-01-29T06:35:05;7.80;;;4.55;;
32611;SDS011;19030;49.478;8.986;2023-01-29T06:37:05;7.80;;;4.07;;
32611;SDS011;19030;49.478;8.986;2023-01-29T06:39:06;9.43;;;5.07;;
32611;SDS011;19030;49.478;8.986;2023-01-29T06:41:11;10.32;;;4.90;;
32611;SDS011;19030;49.478;8.986;2023-01-29T06:43:14;7.63;;;4.57;;
32611;SDS011;19030;49.478;8.986;2023-01-29T06:45:15;9.18;;;4.70;;
32611;SDS011;19030;49.478;8.986;2023-01-29T06:47:16;8.95;;;5.45;;
32611;SDS011;19030;49.478;8.986;2023-01-29T06:49:16;10.23;;;5.00;;
32611;SDS011;19030;49.478;8.986;2023-01-29T06:51:17;8.43;;;4.55;;
32611;SDS011;19030;49.478;8.986;2023-01-29T06:53:17;9.00;;;5.03;;
32611;SDS011;19030;49.478;8.986;2023-01-29T06:55:18;8.95;;;5.25;;
32611;SDS011;19030;49.478;8.986;2023-01-29T06:57:19;10.02;;;5.00;;
32611;SDS011;19030;49.478;8.986;2023-01-29T06:59:19;10.25;;;5.55;;
32611;SDS011;19030;49.478;8.986;2023-01-29T07:01:20;13.25;;;6.13;;
32611;SDS011;19030;49.478;8.986;2023-01-29T07:03:20;8.77;;;5.13;;
32611;SDS011;19030;49.478;8.986;2023-01-29T07:05:21;9.75;;;4.53;;
32611;SDS011;19030;49.478;8.986;2023-01-29T07:07:21;9.77;;;4.70;;
32611;SDS011;19030;49.478;8.986;2023-01-29T07:09:22;8.88;;;4.30;;
32611;SDS011;19030;49.478;8.986;2023-01-29T07:11:23;10.88;;;4.55;;
32611;SDS011;19030;49.478;8.986;2023-01-29T07:13:23;11.98;;;5.13;;
32611;SDS011;19030;49.478;8.986;2023-01-29T07:15:24;10.45;;;4.72;;
32611;SDS011;19030;49.478;8.986;2023-01-29T07:17:24;9.10;;;4.60;;
32611;SDS011;19030;49.478;8.986;2023-01-29T07:19:25;9.68;;;4.80;;
32611;SDS011;19030;49.478;8.986;2023-01-29T07:21:25;9.82;;;4.80;;
32611;SDS011;19030;49.478;8.986;2023-01-29T07:23:27;17.50;;;4.50;;
32611;SDS011;19030;49.478;8.986;2023-01-29T07:25:27;8.88;;;4.68;;
32611;SDS011;19030;49.478;8.986;2023-01-29T07:27:29;6.68;;;3.85;;
32611;SDS011;19030;49.478;8.986;2023-01-29T07:29:29;8.68;;;4.63;;
32611;SDS011;19030;49.478;8.986;2023-01-29T07:31:30;7.85;;;4.45;;
32611;SDS011;19030;49.478;8.986;2023-01-29T07:33:31;8.20;;;3.97;;
32611;SDS011;19030;49.478;8.986;2023-01-29T07:35:34;8.32;;;4.20;;
32611;SDS011;19030;49.478;8.986;2023-01-29T07:37:36;7.97;;;4.30;;
32611;SDS011;19030;49.478;8.986;2023-01-29T07:39:37;8.63;;;4.05;;
32611;SDS011;19030;49.478;8.986;2023-01-29T07:41:37;8.63;;;3.88;;
32611;SDS011;19030;49.478;8.986;2023-01-29T07:43:48;9.00;;;4.68;;
32611;SDS011;19030;49.478;8.986;2023-01-29T07:45:49;8.05;;;4.28;;
32611;SDS011;19030;49.478;8.986;2023-01-29T07:47:51;7.18;;;4.40;;
32611;SDS011;19030;49.478;8.986;2023-01-29T07:49:52;8.90;;;3.97;;
32611;SDS011;19030;49.478;8.986;2023-01-29T07:51:53;8.73;;;4.40;;
32611;SDS011;19030;49.478;8.986;2023-01-29T07:53:53;8.68;;;4.15;;
32611;SDS011;19030;49.478;8.986;2023-01-29T07:55:54;8.45;;;4.75;;
32611;SDS011;19030;49.478;8.986;2023-01-29T07:57:58;10.57;;;4.60;;
32611;SDS011;19030;49.478;8.986;2023-01-29T08:00:00;10.60;;;5.18;;
32611;SDS011;19030;49.478;8.986;2023-01-29T08:02:00;10.30;;;5.03;;
32611;SDS011;19030;49.478;8.986;2023-01-29T08:04:01;8.98;;;4.72;;
32611;SDS011;19030;49.478;8.986;2023-01-29T08:06:02;7.82;;;4.22;;
32611;SDS011;19030;49.478;8.986;2023-01-29T08:08:03;6.75;;;4.05;;
32611;SDS011;19030;49.478;8.986;2023-01-29T08:10:04;7.10;;;4.05;;
32611;SDS011;19030;49.478;8.986;2023-01-29T08:12:05;7.22;;;4.40;;
32611;SDS011;19030;49.478;8.986;2023-01-29T08:14:06;9.52;;;4.80;;
32611;SDS011;19030;49.478;8.986;2023-01-29T08:16:08;8.95;;;4.88;;
32611;SDS011;19030;49.478;8.986;2023-01-29T08:18:08;8.50;;;4.13;;
32611;SDS011;19030;49.478;8.986;2023-01-29T08:20:09;8.10;;;4.38;;
32611;SDS011;19030;49.478;8.986;2023-01-29T08:22:10;9.27;;;4.63;;
32611;SDS011;19030;49.478;8.986;2023-01-29T08:24:11;8.13;;;4.28;;
32611;SDS011;19030;49.478;8.986;2023-01-29T08:26:11;12.88;;;5.88;;
32611;SDS011;19030;49.478;8.986;2023-01-29T08:28:12;12.82;;;5.55;;
32611;SDS011;19030;49.478;8.986;2023-01-29T08:30:12;10.38;;;5.97;;
32611;SDS011;19030;49.478;8.986;2023-01-29T08:32:13;11.18;;;4.97;;
32611;SDS011;19030;49.478;8.986;2023-01-29T08:34:14;9.70;;;5.72;;
32611;SDS011;19030;49.478;8.986;2023-01-29T08:36:14;8.57;;;5.03;;
32611;SDS011;19030;49.478;8.986;2023-01-29T08:38:15;7.72;;;4.57;;
32611;SDS011;19030;49.478;8.986;2023-01-29T08:40:16;8.52;;;4.20;;
32611;SDS011;19030;49.478;8.986;2023-01-29T08:42:17;6.20;;;3.80;;
32611;SDS011;19030;49.478;8.986;2023-01-29T08:44:18;6.50;;;3.85;;
32611;SDS011;19030;49.478;8.986;2023-01-29T08:46:18;8.32;;;4.25;;
32611;SDS011;19030;49.478;8.986;2023-01-29T08:48:19;6.88;;;3.85;;
32611;SDS011;19030;49.478;8.986;2023-01-29T08:50:19;7.22;;;4.30;;
32611;SDS011;19030;49.478;8.986;2023-01-29T08:52:20;9.13;;;4.35;;
32611;SDS011;19030;49.478;8.986;2023-01-29T08:54:21;7.20;;;4.10;;
32611;SDS011;19030;49.478;8.986;2023-01-29T08:56:22;7.80;;;4.15;;
32611;SDS011;19030;49.478;8.986;2023-01-29T08:58:22;6.78;;;4.00;;
32611;SDS011;19030;49.478;8.986;2023-01-29T09:00:23;8.63;;;4.40;;
32611;SDS011;19030;49.478;8.986;2023-01-29T09:02:23;7.90;;;3.90;;
32611;SDS011;19030;49.478;8.986;2023-01-29T09:04:24;9.65;;;4.88;;
32611;SDS011;19030;49.478;8.986;2023-01-29T09:06:25;6.88;;;4.10;;
32611;SDS011;19030;49.478;8.986;2023-01-29T09:08:26;7.55;;;3.80;;
32611;SDS011;19030;49.478;8.986;2023-01-29T09:10:27;11.00;;;5.53;;
32611;SDS011;19030;49.478;8.986;2023-01-29T09:12:27;21.23;;;9.35;;
32611;SDS011;19030;49.478;8.986;2023-01-29T09:14:28;14.77;;;7.85;;
32611;SDS011;19030;49.478;8.986;2023-01-29T09:16:28;18.38;;;9.65;;
32611;SDS011;19030;49.478;8.986;2023-01-29T09:18:29;9.27;;;6.00;;
32611;SDS011;19030;49.478;8.986;2023-01-29T09:20:30;10.02;;;5.32;;
32611;SDS011;19030;49.478;8.986;2023-01-29T09:22:31;11.48;;;9.73;;
32611;SDS011;19030;49.478;8.986;2023-01-29T09:24:32;13.57;;;12.18;;
32611;SDS011;19030;49.478;8.986;2023-01-29T09:26:34;14.40;;;12.90;;
32611;SDS011;19030;49.478;8.986;2023-01-29T09:28:34;13.15;;;11.82;;
32611;SDS011;19030;49.478;8.986;2023-01-29T09:30:35;9.82;;;7.72;;
32611;SDS011;19030;49.478;8.986;2023-01-29T09:32:37;9.63;;;6.07;;
32611;SDS011;19030;49.478;8.986;2023-01-29T09:34:37;8.65;;;5.07;;
32611;SDS011;19030;49.478;8.986;2023-01-29T09:36:38;9.05;;;5.32;;
32611;SDS011;19030;49.478;8.986;2023-01-29T09:38:38;9.25;;;5.43;;
32611;SDS011;19030;49.478;8.986;2023-01-29T09:42:50;7.57;;;4.72;;
32611;SDS011;19030;49.478;8.986;2023-01-29T09:45:14;9.18;;;5.13;;
32611;SDS011;19030;49.478;8.986;2023-01-29T09:47:24;9.38;;;5.40;;
32611;SDS011;19030;49.478;8.986;2023-01-29T09:49:27;7.20;;;4.30;;
32611;SDS011;19030;49.478;8.986;2023-01-29T09:51:39;8.50;;;4.85;;
32611;SDS011;19030;49.478;8.986;2023-01-29T09:53:44;12.93;;;5.45;;
32611;SDS011;19030;49.478;8.986;2023-01-29T09:55:52;7.75;;;4.50;;
32611;SDS011;19030;49.478;8.986;2023-01-29T09:57:58;9.93;;;4.70;;
32611;SDS011;19030;49.478;8.986;2023-01-29T10:00:05;7.55;;;4.75;;
32611;SDS011;19030;49.478;8.986;2023-01-29T10:02:13;9.85;;;5.45;;
32611;SDS011;19030;49.478;8.986;2023-01-29T10:06:52;8.77;;;4.93;;
32611;SDS011;19030;49.478;8.986;2023-01-29T10:11:25;27.85;;;11.15;;
32611;SDS011;19030;49.478;8.986;2023-01-29T10:13:47;46.15;;;19.63;;
32611;SDS011;19030;49.478;8.986;2023-01-29T10:16:02;30.27;;;12.48;;
32611;SDS011;19030;49.478;8.986;2023-01-29T10:23:28;9.57;;;5.90;;
32611;SDS011;19030;49.478;8.986;2023-01-29T10:25:32;9.85;;;5.22;;
32611;SDS011;19030;49.478;8.986;2023-01-29T10:29:43;8.95;;;5.43;;
32611;SDS011;19030;49.478;8.986;2023-01-29T10:31:51;9.30;;;5.03;;
32611;SDS011;19030;49.478;8.986;2023-01-29T10:33:58;9.90;;;5.20;;
32611;SDS011;19030;49.478;8.986;2023-01-29T10:36:03;10.38;;;5.35;;
32611;SDS011;19030;49.478;8.986;2023-01-29T10:40:28;9.07;;;5.50;;
32611;SDS011;19030;49.478;8.986;2023-01-29T10:42:39;8.55;;;5.03;;
32611;SDS011;19030;49.478;8.986;2023-01-29T10:47:06;11.15;;;5.90;;
32611;SDS011;19030;49.478;8.986;2023-01-29T10:53:58;10.02;;;5.65;;
32611;SDS011;19030;49.478;8.986;2023-01-29T10:58:54;10.77;;;6.05;;
32611;SDS011;19030;49.478;8.986;2023-01-29T11:00:59;13.32;;;6.45;;
32611;SDS011;19030;49.478;8.986;2023-01-29T11:03:07;11.43;;;6.38;;
32611;SDS011;19030;49.478;8.986;2023-01-29T11:05:33;13.98;;;6.50;;
32611;SDS011;19030;49.478;8.986;2023-01-29T11:07:40;11.02;;;5.60;;
32611;SDS011;19030;49.478;8.986;2023-01-29T11:11:58;9.57;;;5.15;;
32611;SDS011;19030;49.478;8.986;2023-01-29T11:14:07;13.15;;;6.72;;
32611;SDS011;19030;49.478;8.986;2023-01-29T11:16:12;11.68;;;6.13;;
32611;SDS011;19030;49.478;8.986;2023-01-29T11:18:13;10.57;;;5.00;;
32611;SDS011;19030;49.478;8.986;2023-01-29T11:20:25;9.23;;;5.07;;
32611;SDS011;19030;49.478;8.986;2023-01-29T11:22:27;10.98;;;5.38;;
32611;SDS011;19030;49.478;8.986;2023-01-29T11:24:29;9.52;;;5.45;;
32611;SDS011;19030;49.478;8.986;2023-01-29T11:26:32;8.80;;;5.22;;
32611;SDS011;19030;49.478;8.986;2023-01-29T11:28:43;11.15;;;7.20;;
32611;SDS011;19030;49.478;8.986;2023-01-29T11:30:45;9.07;;;4.75;;
32611;SDS011;19030;49.478;8.986;2023-01-29T11:32:49;8.52;;;4.95;;
32611;SDS011;19030;49.478;8.986;2023-01-29T11:37:16;7.70;;;4.32;;
32611;SDS011;19030;49.478;8.986;2023-01-29T11:39:18;7.47;;;4.45;;
32611;SDS011;19030;49.478;8.986;2023-01-29T11:41:20;9.82;;;4.55;;
32611;SDS011;19030;49.478;8.986;2023-01-29T11:45:27;8.60;;;4.80;;
32611;SDS011;19030;49.478;8.986;2023-01-29T11:47:31;9.52;;;4.95;;
32611;SDS011;19030;49.478;8.986;2023-01-29T11:49:32;8.85;;;5.15;;
32611;SDS011;19030;49.478;8.986;2023-01-29T11:51:34;8.85;;;5.10;;
32611;SDS011;19030;49.478;8.986;2023-01-29T11:53:38;11.15;;;5.38;;
32611;SDS011;19030;49.478;8.986;2023-01-29T11:55:40;8.20;;;4.50;;
32611;SDS011;19030;49.478;8.986;2023-01-29T11:57:45;12.60;;;5.82;;
32611;SDS011;19030;49.478;8.986;2023-01-29T11:59:50;9.98;;;4.78;;
32611;SDS011;19030;49.478;8.986;2023-01-29T12:01:52;9.02;;;4.75;;
32611;SDS011;19030;49.478;8.986;2023-01-29T12:03:53;7.97;;;4.70;;
32611;SDS011;19030;49.478;8.986;2023-01-29T12:05:58;8.73;;;5.10;;
32611;SDS011;19030;49.478;8.986;2023-01-29T12:08:01;8.35;;;4.60;;
32611;SDS011;19030;49.478;8.986;2023-01-29T12:10:02;9.20;;;4.82;;
32611;SDS011;19030;49.478;8.986;2023-01-29T12:12:15;9.45;;;5.30;;
32611;SDS011;19030;49.478;8.986;2023-01-29T12:14:29;8.63;;;4.80;;
32611;SDS011;19030;49.478;8.986;2023-01-29T12:16:37;8.77;;;4.65;;
32611;SDS011;19030;49.478;8.986;2023-01-29T12:18:45;8.27;;;4.65;;
32611;SDS011;19030;49.478;8.986;2023-01-29T12:20:51;9.35;;;4.75;;
32611;SDS011;19030;49.478;8.986;2023-01-29T12:23:18;9.13;;;5.18;;
32611;SDS011;19030;49.478;8.986;2023-01-29T12:27:37;10.95;;;5.25;;
32611;SDS011;19030;49.478;8.986;2023-01-29T12:30:11;10.05;;;5.55;;
32611;SDS011;19030;49.478;8.986;2023-01-29T12:35:00;9.18;;;4.88;;
32611;SDS011;19030;49.478;8.986;2023-01-29T12:39:24;9.18;;;5.82;;
32611;SDS011;19030;49.478;8.986;2023-01-29T12:43:45;10.95;;;7.32;;
32611;SDS011;19030;49.478;8.986;2023-01-29T12:45:50;12.55;;;8.25;;
32611;SDS011;19030;49.478;8.986;2023-01-29T12:47:54;11.13;;;6.15;;
32611;SDS011;19030;49.478;8.986;2023-01-29T12:50:00;10.85;;;6.38;;
32611;SDS011;19030;49.478;8.986;2023-01-29T12:52:14;10.82;;;6.32;;
32611;SDS011;19030;49.478;8.986;2023-01-29T12:54:21;14.48;;;7.32;;
32611;SDS011;19030;49.478;8.986;2023-01-29T12:56:31;12.25;;;7.60;;
32611;SDS011;19030;49.478;8.986;2023-01-29T12:58:41;11.65;;;6.82;;
32611;SDS011;19030;49.478;8.986;2023-01-29T13:00:45;11.73;;;7.88;;
32611;SDS011;19030;49.478;8.986;2023-01-29T13:03:13;9.95;;;6.53;;
32611;SDS011;19030;49.478;8.986;2023-01-29T13:05:17;11.57;;;6.50;;
32611;SDS011;19030;49.478;8.986;2023-01-29T13:07:26;11.38;;;6.32;;
32611;SDS011;19030;49.478;8.986;2023-01-29T13:09:31;11.82;;;8.25;;
32611;SDS011;19030;49.478;8.986;2023-01-29T13:11:37;11.18;;;6.60;;
32611;SDS011;19030;49.478;8.986;2023-01-29T13:15:53;12.63;;;7.90;;
32611;SDS011;19030;49.478;8.986;2023-01-29T13:17:57;16.15;;;7.70;;
32611;SDS011;19030;49.478;8.986;2023-01-29T13:20:17;11.65;;;7.63;;
32611;SDS011;19030;49.478;8.986;2023-01-29T13:22:23;15.43;;;8.93;;
32611;SDS011;19030;49.478;8.986;2023-01-29T13:24:30;19.83;;;10.82;;
32611;SDS011;19030;49.478;8.986;2023-01-29T13:26:36;13.90;;;8.73;;
32611;SDS011;19030;49.478;8.986;2023-01-29T13:28:37;13.32;;;8.60;;
32611;SDS011;19030;49.478;8.986;2023-01-29T13:30:38;13.95;;;8.13;;
32611;SDS011;19030;49.478;8.986;2023-01-29T13:32:39;13.35;;;7.80;;
32611;SDS011;19030;49.478;8.986;2023-01-29T13:34:43;21.02;;;11.65;;
32611;SDS011;19030;49.478;8.986;2023-01-29T13:38:53;50.13;;;24.40;;
32611;SDS011;19030;49.478;8.986;2023-01-29T13:41:05;27.02;;;12.35;;
32611;SDS011;19030;49.478;8.986;2023-01-29T13:43:10;13.57;;;8.80;;
32611;SDS011;19030;49.478;8.986;2023-01-29T13:45:23;16.02;;;11.80;;
32611;SDS011;19030;49.478;8.986;2023-01-29T13:47:28;15.75;;;12.10;;
32611;SDS011;19030;49.478;8.986;2023-01-29T13:50:17;12.85;;;7.43;;
32611;SDS011;19030;49.478;8.986;2023-01-29T13:52:16;13.02;;;8.57;;
32611;SDS011;19030;49.478;8.986;2023-01-29T13:54:35;16.33;;;8.13;;
32611;SDS011;19030;49.478;8.986;2023-01-29T13:58:59;18.75;;;13.20;;
32611;SDS011;19030;49.478;8.986;2023-01-29T14:01:01;17.85;;;11.05;;
32611;SDS011;19030;49.478;8.986;2023-01-29T14:07:46;14.95;;;9.23;;
32611;SDS011;19030;49.478;8.986;2023-01-29T14:11:50;22.73;;;13.38;;